createdAt,value
2022-10-18T00:00:17.813Z,9.30
2022-10-18T00:02:46.612Z,8.60
2022-10-18T00:05:15.512Z,8.23
2022-10-18T00:07:45.870Z,8.80
2022-10-18T00:10:23.670Z,10.00
2022-10-18T00:12:55.446Z,9.37
2022-10-18T00:15:24.389Z,10.70
2022-10-18T00:17:53.260Z,9.27
2022-10-18T00:20:22.249Z,10.30
2022-10-18T00:22:52.305Z,9.90
2022-10-18T00:25:21.361Z,10.40
2022-10-18T00:27:50.130Z,10.03
2022-10-18T00:30:19.011Z,9.30
2022-10-18T00:32:47.734Z,9.10
2022-10-18T00:35:16.605Z,9.13
2022-10-18T00:37:45.375Z,9.70
2022-10-18T00:40:15.624Z,11.07
2022-10-18T00:42:45.814Z,11.07
2022-10-18T00:45:19.160Z,10.00
2022-10-18T00:47:52.022Z,13.10
2022-10-18T00:50:22.751Z,15.80
2022-10-18T00:52:58.575Z,14.83
2022-10-18T00:55:30.243Z,18.30
2022-10-18T00:57:59.738Z,19.33
2022-10-18T01:00:28.996Z,19.30
2022-10-18T01:02:59.724Z,18.93
2022-10-18T01:05:28.779Z,18.73
2022-10-18T01:08:10.569Z,17.53
2022-10-18T01:10:48.991Z,18.33
2022-10-18T01:13:31.282Z,15.57
2022-10-18T01:16:04.783Z,14.50
2022-10-18T01:18:41.450Z,13.13
2022-10-18T01:21:24.270Z,13.90
2022-10-18T01:24:30.531Z,12.43
2022-10-18T01:27:26.912Z,12.43
2022-10-18T01:30:38.166Z,11.67
2022-10-18T01:33:21.328Z,12.07
2022-10-18T01:35:55.917Z,9.80
2022-10-18T01:38:28.483Z,9.20
2022-10-18T01:40:59.411Z,8.83
2022-10-18T01:43:29.809Z,8.37
2022-10-18T01:46:01.172Z,9.30
2022-10-18T01:48:33.751Z,7.77
2022-10-18T01:51:02.611Z,7.83
2022-10-18T01:53:33.494Z,8.17
2022-10-18T01:56:26.797Z,8.50
2022-10-18T01:59:16.615Z,8.00
2022-10-18T02:01:58.030Z,7.87
2022-10-18T02:04:35.337Z,8.07
2022-10-18T02:07:13.456Z,7.70
2022-10-18T02:09:50.492Z,8.17
2022-10-18T02:12:20.658Z,8.30
2022-10-18T02:14:51.331Z,7.70
2022-10-18T02:17:24.622Z,7.80
2022-10-18T02:19:57.210Z,7.50
2022-10-18T02:22:31.015Z,8.70
2022-10-18T02:25:04.769Z,8.60
2022-10-18T02:27:33.920Z,7.80
2022-10-18T02:30:02.794Z,9.37
2022-10-18T02:32:36.300Z,8.13
2022-10-18T02:35:12.064Z,8.27
2022-10-18T02:37:42.582Z,7.60
2022-10-18T02:40:12.540Z,8.17
2022-10-18T02:42:47.995Z,8.53
2022-10-18T02:45:17.818Z,10.00
2022-10-18T02:47:46.711Z,9.13
2022-10-18T02:50:17.480Z,8.03
2022-10-18T02:52:46.460Z,9.17
2022-10-18T02:55:15.457Z,8.30
2022-10-18T02:57:44.664Z,8.90
2022-10-18T03:00:14.722Z,9.10
2022-10-18T03:02:43.676Z,8.23
2022-10-18T03:05:14.258Z,9.27
2022-10-18T03:07:45.029Z,8.67
2022-10-18T03:10:13.898Z,7.93
2022-10-18T03:12:42.917Z,9.27
2022-10-18T03:15:12.437Z,9.20
2022-10-18T03:17:41.488Z,8.87
2022-10-18T03:20:13.646Z,8.50
2022-10-18T03:22:42.629Z,8.30
2022-10-18T03:25:13.043Z,7.90
2022-10-18T03:27:42.058Z,8.07
2022-10-18T03:30:13.538Z,7.63
2022-10-18T03:32:43.064Z,7.43
2022-10-18T03:35:12.092Z,7.67
2022-10-18T03:37:41.206Z,8.10
2022-10-18T03:40:11.013Z,8.13
2022-10-18T03:42:41.349Z,7.20
2022-10-18T03:45:11.303Z,7.73
2022-10-18T03:47:40.326Z,7.73
2022-10-18T03:50:09.784Z,7.20
2022-10-18T03:52:38.752Z,7.77
2022-10-18T03:55:09.134Z,7.43
2022-10-18T03:57:38.253Z,7.70
2022-10-18T04:00:10.285Z,7.90
2022-10-18T04:02:43.341Z,9.40
2022-10-18T04:05:13.308Z,7.93
2022-10-18T04:07:42.380Z,7.10
2022-10-18T04:10:11.709Z,7.23
2022-10-18T04:12:40.653Z,7.47
2022-10-18T04:15:12.710Z,8.07
2022-10-18T04:20:29.131Z,6.37
2022-10-18T04:23:00.745Z,6.93
2022-10-18T04:25:30.235Z,7.60
2022-10-18T04:27:59.069Z,7.57
2022-10-18T04:30:31.815Z,7.37
2022-10-18T04:33:00.735Z,6.67
2022-10-18T04:35:29.580Z,8.93
2022-10-18T04:38:00.674Z,8.00
2022-10-18T04:40:29.714Z,6.93
2022-10-18T04:42:58.575Z,7.23
2022-10-18T04:45:29.243Z,6.93
2022-10-18T04:47:58.309Z,7.10
2022-10-18T04:50:27.164Z,7.57
2022-10-18T04:52:56.126Z,7.97
2022-10-18T04:55:25.260Z,6.70
2022-10-18T04:57:54.971Z,7.83
2022-10-18T05:00:24.061Z,6.10
2022-10-18T05:02:57.991Z,7.17
2022-10-18T05:05:43.249Z,8.50
2022-10-18T05:08:15.877Z,7.70
2022-10-18T05:10:44.827Z,6.80
2022-10-18T05:13:14.492Z,7.73
2022-10-18T05:15:43.389Z,8.60
2022-10-18T05:18:13.912Z,8.73
2022-10-18T05:20:43.044Z,9.20
2022-10-18T05:23:12.140Z,9.20
2022-10-18T05:25:43.177Z,8.60
2022-10-18T05:28:34.555Z,8.80
2022-10-18T05:31:03.332Z,8.80
2022-10-18T05:33:34.472Z,8.67
2022-10-18T05:36:03.524Z,8.80
2022-10-18T05:38:32.816Z,9.23
2022-10-18T05:41:05.625Z,9.10
2022-10-18T05:43:34.650Z,9.73
2022-10-18T05:46:04.466Z,10.67
2022-10-18T05:48:35.201Z,9.47
2022-10-18T05:51:04.158Z,11.00
2022-10-18T05:53:37.518Z,10.57
2022-10-18T05:56:07.881Z,10.80
2022-10-18T05:58:37.081Z,9.60
2022-10-18T06:01:07.251Z,11.40
2022-10-18T06:03:38.190Z,9.23
2022-10-18T06:06:08.962Z,8.00
2022-10-18T06:08:39.041Z,9.00
2022-10-18T06:11:09.294Z,8.17
2022-10-18T06:13:42.519Z,8.03
2022-10-18T06:16:12.649Z,9.17
2022-10-18T06:18:43.475Z,9.17
2022-10-18T06:21:12.422Z,8.47
2022-10-18T06:23:41.335Z,8.37
2022-10-18T06:26:15.016Z,8.60
2022-10-18T06:28:44.229Z,8.17
2022-10-18T06:31:14.029Z,8.70
2022-10-18T06:33:45.894Z,8.03
2022-10-18T06:36:16.850Z,9.10
2022-10-18T06:38:45.963Z,8.43
2022-10-18T06:41:15.605Z,8.07
2022-10-18T06:43:45.073Z,7.30
2022-10-18T06:46:14.408Z,8.00
2022-10-18T06:48:44.752Z,7.77
2022-10-18T06:51:13.903Z,8.43
2022-10-18T06:53:59.001Z,6.67
2022-10-18T06:56:32.861Z,7.60
2022-10-18T06:59:01.773Z,8.03
2022-10-18T07:01:30.889Z,7.23
2022-10-18T07:04:01.239Z,8.00
2022-10-18T07:06:30.346Z,6.57
2022-10-18T07:08:59.604Z,6.53
2022-10-18T07:11:29.026Z,7.57
2022-10-18T07:14:03.340Z,6.80
2022-10-18T07:16:33.140Z,6.80
2022-10-18T07:19:03.592Z,6.57
2022-10-18T07:21:33.242Z,7.30
2022-10-18T07:24:02.161Z,7.40
2022-10-18T07:26:32.606Z,7.00
2022-10-18T07:29:05.565Z,7.80
2022-10-18T07:31:35.434Z,7.80
2022-10-18T07:34:08.120Z,6.97
2022-10-18T07:36:37.225Z,7.50
2022-10-18T07:39:06.331Z,7.57
2022-10-18T07:41:35.896Z,7.90
2022-10-18T07:44:06.058Z,7.07
2022-10-18T07:46:35.544Z,6.83
2022-10-18T07:49:04.774Z,8.27
2022-10-18T07:51:36.339Z,7.87
2022-10-18T07:54:05.438Z,8.50
2022-10-18T07:56:34.736Z,6.47
2022-10-18T07:59:03.632Z,5.87
2022-10-18T08:01:32.652Z,7.50
2022-10-18T08:04:06.971Z,14.10
2022-10-18T08:06:38.079Z,7.17
2022-10-18T08:09:07.372Z,8.10
2022-10-18T08:11:36.479Z,7.50
2022-10-18T08:14:05.577Z,7.00
2022-10-18T08:16:34.554Z,6.93
2022-10-18T08:19:03.555Z,6.97
2022-10-18T08:21:32.560Z,8.53
2022-10-18T08:24:02.971Z,7.17
2022-10-18T08:26:31.967Z,6.67
2022-10-18T08:29:21.193Z,6.57
2022-10-18T08:31:51.718Z,7.30
2022-10-18T08:34:23.007Z,7.50
2022-10-18T08:36:52.206Z,7.30
2022-10-18T08:39:22.652Z,7.10
2022-10-18T08:42:09.802Z,6.87
2022-10-18T08:44:46.007Z,8.17
2022-10-18T08:47:18.395Z,6.60
2022-10-18T08:49:50.748Z,7.10
2022-10-18T08:52:30.477Z,10.93
2022-10-18T08:55:04.798Z,6.40
2022-10-18T08:57:34.550Z,6.70
2022-10-18T09:00:07.591Z,6.20
2022-10-18T09:02:52.409Z,7.70
2022-10-18T09:05:29.357Z,6.00
2022-10-18T09:08:46.425Z,6.40
2022-10-18T09:11:34.403Z,6.73
2022-10-18T09:14:24.769Z,8.23
2022-10-18T09:17:06.181Z,11.97
2022-10-18T09:20:02.204Z,12.20
2022-10-18T09:22:47.019Z,7.60
2022-10-18T09:25:20.897Z,7.00
2022-10-18T09:27:55.525Z,7.40
2022-10-18T09:30:44.244Z,7.10
2022-10-18T09:33:27.601Z,7.67
2022-10-18T09:36:01.610Z,8.67
2022-10-18T09:38:34.780Z,8.73
2022-10-18T09:41:10.189Z,9.40
2022-10-18T09:43:50.472Z,8.57
2022-10-18T09:46:21.998Z,8.67
2022-10-18T09:48:56.141Z,8.30
2022-10-18T09:51:28.627Z,7.80
2022-10-18T09:54:20.261Z,10.87
2022-10-18T09:56:52.573Z,8.97
2022-10-18T09:59:37.069Z,8.67
2022-10-18T10:02:07.290Z,7.40
2022-10-18T10:04:36.293Z,9.77
2022-10-18T10:07:10.076Z,8.93
2022-10-18T10:09:46.347Z,10.40
2022-10-18T10:12:29.186Z,7.80
2022-10-18T10:15:10.065Z,8.27
2022-10-18T10:17:39.265Z,8.60
2022-10-18T10:20:19.215Z,8.17
2022-10-18T10:22:51.444Z,8.90
2022-10-18T10:25:27.511Z,9.60
2022-10-18T10:27:56.752Z,9.00
2022-10-18T10:30:30.027Z,7.70
2022-10-18T10:33:01.585Z,7.00
2022-10-18T10:35:52.700Z,9.50
2022-10-18T10:38:28.545Z,8.80
2022-10-18T10:40:58.277Z,9.63
2022-10-18T10:43:44.807Z,8.27
2022-10-18T10:46:17.516Z,11.63
2022-10-18T10:49:00.378Z,10.87
2022-10-18T10:51:42.371Z,8.97
2022-10-18T10:54:16.049Z,9.30
2022-10-18T10:56:56.557Z,11.90
2022-10-18T10:59:28.615Z,8.50
2022-10-18T11:02:22.046Z,9.47
2022-10-18T11:04:52.901Z,7.43
2022-10-18T11:07:27.302Z,8.80
2022-10-18T11:10:05.068Z,9.37
2022-10-18T11:12:36.110Z,8.60
2022-10-18T11:15:21.494Z,9.00
2022-10-18T11:18:04.253Z,8.90
2022-10-18T11:20:37.410Z,9.80
2022-10-18T11:23:09.463Z,9.70
2022-10-18T11:26:09.640Z,9.33
2022-10-18T11:29:04.173Z,9.30
2022-10-18T11:31:38.754Z,8.23
2022-10-18T11:34:45.796Z,11.03
2022-10-18T11:37:31.243Z,13.20
2022-10-18T11:40:11.963Z,11.77
2022-10-18T11:45:45.766Z,10.40
2022-10-18T11:48:37.839Z,10.27
2022-10-18T11:51:15.113Z,8.30
2022-10-18T11:53:57.570Z,8.87
2022-10-18T11:56:35.703Z,8.33
2022-10-18T11:59:19.939Z,11.27
2022-10-18T12:01:57.305Z,11.27
2022-10-18T12:04:32.985Z,8.37
2022-10-18T12:07:08.068Z,9.73
2022-10-18T12:09:40.484Z,10.60
2022-10-18T12:12:14.194Z,9.90
2022-10-18T12:14:50.465Z,8.20
2022-10-18T12:17:42.746Z,9.03
2022-10-18T12:20:22.760Z,7.77
2022-10-18T12:23:02.467Z,9.00
2022-10-18T12:25:34.965Z,8.90
2022-10-18T12:28:15.517Z,8.07
2022-10-18T12:30:51.375Z,9.47
2022-10-18T12:33:28.617Z,9.83
2022-10-18T12:36:10.252Z,8.63
2022-10-18T12:38:44.051Z,8.70
2022-10-18T12:41:20.258Z,9.73
2022-10-18T12:43:54.591Z,9.17
2022-10-18T12:46:26.027Z,8.90
2022-10-18T12:49:05.432Z,9.63
2022-10-18T12:51:36.575Z,8.57
2022-10-18T12:54:14.271Z,9.10
2022-10-18T12:56:47.026Z,8.90
2022-10-18T12:59:52.526Z,10.53
2022-10-18T13:02:30.832Z,9.73
2022-10-18T13:05:01.124Z,10.60
2022-10-18T13:07:43.502Z,9.47
2022-10-18T13:10:36.585Z,9.30
2022-10-18T13:13:59.105Z,9.80
2022-10-18T13:16:36.302Z,8.73
2022-10-18T13:19:21.849Z,9.10
2022-10-18T13:21:59.820Z,9.03
2022-10-18T13:27:36.744Z,10.70
2022-10-18T13:30:29.219Z,9.50
2022-10-18T13:33:08.881Z,8.97
2022-10-18T13:35:54.969Z,12.10
2022-10-18T13:38:48.276Z,8.10
2022-10-18T13:41:19.693Z,12.63
2022-10-18T13:44:25.947Z,9.77
2022-10-18T13:47:36.189Z,10.80
2022-10-18T13:50:36.839Z,8.63
2022-10-18T13:53:34.453Z,9.00
2022-10-18T13:56:45.700Z,10.80
2022-10-18T13:59:50.579Z,10.23
2022-10-18T14:02:51.571Z,9.47
2022-10-18T14:05:47.434Z,10.43
2022-10-18T14:08:20.661Z,10.20
2022-10-18T14:11:03.539Z,8.97
2022-10-18T14:13:41.043Z,8.80
2022-10-18T14:16:21.547Z,9.10
2022-10-18T14:18:56.231Z,9.77
2022-10-18T14:21:31.813Z,8.93
2022-10-18T14:24:00.894Z,10.90
2022-10-18T14:26:30.113Z,10.87
2022-10-18T14:29:06.771Z,10.70
2022-10-18T14:31:36.676Z,11.77
2022-10-18T14:34:08.026Z,10.33
2022-10-18T14:36:42.182Z,9.80
2022-10-18T14:39:21.397Z,9.97
2022-10-18T14:41:52.070Z,9.20
2022-10-18T14:44:23.264Z,11.50
2022-10-18T14:46:54.159Z,11.27
2022-10-18T14:49:27.334Z,13.33
2022-10-18T14:51:59.087Z,12.30
2022-10-18T14:54:32.392Z,10.90
2022-10-18T14:57:02.769Z,10.87
2022-10-18T14:59:35.024Z,9.90
2022-10-18T15:02:12.097Z,10.60
2022-10-18T15:04:46.285Z,10.70
2022-10-18T15:07:17.588Z,11.40
2022-10-18T15:09:48.410Z,11.30
2022-10-18T15:12:18.937Z,11.27
2022-10-18T15:14:49.277Z,11.90
2022-10-18T15:17:22.911Z,10.83
2022-10-18T15:20:01.854Z,11.93
2022-10-18T15:22:35.523Z,11.53
2022-10-18T15:25:18.115Z,10.13
2022-10-18T15:27:49.387Z,13.83
2022-10-18T15:30:24.268Z,10.43
2022-10-18T15:32:55.942Z,11.93
2022-10-18T15:35:30.025Z,9.33
2022-10-18T15:38:02.724Z,11.03
2022-10-18T15:40:49.478Z,12.60
2022-10-18T15:43:40.975Z,12.60
2022-10-18T15:46:31.944Z,11.40
2022-10-18T15:49:38.845Z,11.57
2022-10-18T15:52:38.655Z,14.73
2022-10-18T15:55:56.795Z,15.00
2022-10-18T15:58:27.490Z,14.40
2022-10-18T16:00:59.397Z,12.83
2022-10-18T16:03:29.508Z,13.87
2022-10-18T16:06:04.772Z,12.97
2022-10-18T16:08:42.025Z,10.97
2022-10-18T16:11:16.388Z,22.73
2022-10-18T16:13:45.683Z,14.27
2022-10-18T16:16:17.567Z,12.10
2022-10-18T16:18:46.865Z,12.77
2022-10-18T16:21:22.819Z,12.90
2022-10-18T16:23:53.282Z,11.90
2022-10-18T16:26:23.263Z,12.23
2022-10-18T16:28:56.775Z,12.43
2022-10-18T16:31:27.786Z,11.33
2022-10-18T16:33:58.293Z,12.13
2022-10-18T16:36:29.326Z,11.13
2022-10-18T16:39:05.837Z,11.17
2022-10-18T16:41:35.064Z,12.93
2022-10-18T16:44:03.955Z,11.90
2022-10-18T16:46:34.842Z,10.33
2022-10-18T16:49:04.937Z,10.97
2022-10-18T16:51:33.960Z,11.63
2022-10-18T16:54:07.805Z,11.57
2022-10-18T16:56:36.967Z,11.30
2022-10-18T16:59:06.198Z,10.47
2022-10-18T17:01:35.582Z,11.17
2022-10-18T17:04:04.713Z,9.57
2022-10-18T17:06:35.079Z,12.30
2022-10-18T17:09:05.788Z,11.47
2022-10-18T17:11:34.703Z,11.50
2022-10-18T17:14:03.784Z,11.97
2022-10-18T17:16:34.569Z,11.90
2022-10-18T17:19:06.053Z,12.57
2022-10-18T17:21:36.174Z,11.80
2022-10-18T17:24:06.890Z,12.20
2022-10-18T17:26:35.907Z,13.53
2022-10-18T17:29:07.246Z,12.90
2022-10-18T17:31:36.791Z,11.13
2022-10-18T17:34:06.455Z,11.97
2022-10-18T17:36:36.033Z,12.70
2022-10-18T17:39:07.029Z,13.47
2022-10-18T17:41:36.166Z,13.00
2022-10-18T17:44:06.090Z,12.13
2022-10-18T17:46:35.045Z,17.00
2022-10-18T17:49:04.127Z,13.10
2022-10-18T17:51:33.343Z,14.80
2022-10-18T17:54:02.370Z,13.70
2022-10-18T17:56:35.955Z,13.23
2022-10-18T17:59:05.483Z,13.00
2022-10-18T18:01:34.821Z,14.93
2022-10-18T18:04:04.998Z,13.73
2022-10-18T18:06:35.520Z,18.53
2022-10-18T18:09:08.474Z,15.37
2022-10-18T18:11:42.323Z,16.50
2022-10-18T18:14:11.625Z,13.57
2022-10-18T18:16:42.183Z,14.90
2022-10-18T18:19:11.838Z,16.43
2022-10-18T18:21:41.771Z,17.37
2022-10-18T18:24:11.593Z,17.13
2022-10-18T18:26:43.678Z,15.50
2022-10-18T18:29:14.691Z,19.27
2022-10-18T18:31:44.318Z,15.60
2022-10-18T18:34:13.386Z,21.13
2022-10-18T18:36:43.087Z,19.60
2022-10-18T18:39:20.096Z,17.73
2022-10-18T18:41:52.236Z,18.30
2022-10-18T18:44:21.853Z,16.07
2022-10-18T18:46:51.052Z,17.43
2022-10-18T18:49:20.399Z,18.23
2022-10-18T18:51:49.430Z,17.50
2022-10-18T18:54:18.477Z,17.73
2022-10-18T18:56:47.517Z,18.50
2022-10-18T18:59:21.044Z,17.87
2022-10-18T19:01:51.856Z,15.97
2022-10-18T19:04:21.433Z,25.17
2022-10-18T19:06:50.790Z,18.20
2022-10-18T19:09:22.807Z,29.17
2022-10-18T19:11:53.991Z,17.20
2022-10-18T19:14:25.958Z,19.20
2022-10-18T19:16:57.877Z,19.30
2022-10-18T19:19:29.199Z,20.67
2022-10-18T19:22:00.512Z,15.10
2022-10-18T19:24:32.285Z,16.20
2022-10-18T19:27:03.741Z,17.37
2022-10-18T19:29:36.073Z,18.80
2022-10-18T19:32:07.495Z,18.10
2022-10-18T19:34:37.351Z,18.43
2022-10-18T19:37:06.430Z,19.00
2022-10-18T19:39:36.539Z,21.80
2022-10-18T19:42:08.320Z,19.37
2022-10-18T19:44:39.083Z,22.30
2022-10-18T19:47:09.282Z,22.17
2022-10-18T19:49:38.165Z,22.07
2022-10-18T19:52:07.378Z,16.80
2022-10-18T19:54:36.478Z,17.77
2022-10-18T19:57:05.522Z,22.03
2022-10-18T19:59:38.256Z,21.37
2022-10-18T20:02:13.767Z,18.63
2022-10-18T20:04:42.948Z,17.93
2022-10-18T20:07:11.992Z,18.60
2022-10-18T20:09:41.089Z,18.53
2022-10-18T20:12:10.154Z,18.93
2022-10-18T20:14:39.390Z,17.43
2022-10-18T20:17:13.233Z,19.37
2022-10-18T20:19:42.276Z,17.93
2022-10-18T20:22:11.226Z,17.43
2022-10-18T20:24:40.406Z,16.70
2022-10-18T20:27:09.545Z,19.23
2022-10-18T20:29:38.752Z,18.37
2022-10-18T20:32:09.574Z,17.43
2022-10-18T20:34:38.741Z,20.50
2022-10-18T20:37:07.682Z,17.63
2022-10-18T20:39:36.738Z,19.60
2022-10-18T20:42:05.747Z,17.43
2022-10-18T20:44:34.972Z,17.20
2022-10-18T20:47:04.219Z,18.57
2022-10-18T20:49:34.744Z,19.50
2022-10-18T20:52:03.863Z,20.60
2022-10-18T20:54:32.974Z,19.07
2022-10-18T20:57:01.876Z,18.57
2022-10-18T20:59:31.112Z,16.97
2022-10-18T21:02:02.161Z,19.77
2022-10-18T21:04:31.746Z,23.57
2022-10-18T21:07:02.133Z,21.53
2022-10-18T21:09:31.309Z,20.63
2022-10-18T21:12:00.330Z,19.50
2022-10-18T21:14:29.662Z,19.70
2022-10-18T21:16:58.674Z,18.10
2022-10-18T21:19:28.834Z,17.17
2022-10-18T21:21:58.791Z,17.17
2022-10-18T21:24:30.259Z,15.47
2022-10-18T21:27:00.588Z,16.93
2022-10-18T21:29:31.220Z,18.30
2022-10-18T21:32:01.150Z,16.87
2022-10-18T21:34:30.136Z,16.43
2022-10-18T21:36:59.304Z,18.50
2022-10-18T21:39:30.460Z,18.63
2022-10-18T21:41:59.972Z,17.53
2022-10-18T21:44:28.915Z,17.60
2022-10-18T21:46:57.960Z,17.70
2022-10-18T21:49:29.313Z,17.20
2022-10-18T21:51:58.536Z,17.00
2022-10-18T21:54:28.904Z,17.43
2022-10-18T21:56:58.153Z,17.10
2022-10-18T21:59:27.195Z,15.90
2022-10-18T22:01:56.449Z,17.57
2022-10-18T22:04:28.922Z,17.53
2022-10-18T22:06:58.527Z,17.37
2022-10-18T22:09:28.988Z,17.10
2022-10-18T22:11:58.083Z,17.57
2022-10-18T22:14:27.723Z,19.30
2022-10-18T22:16:56.699Z,18.43
2022-10-18T22:19:27.852Z,18.80
2022-10-18T22:21:56.952Z,19.50
2022-10-18T22:24:26.282Z,19.90
2022-10-18T22:26:57.573Z,21.13
2022-10-18T22:29:26.428Z,20.97
2022-10-18T22:31:56.118Z,20.50
2022-10-18T22:34:29.828Z,23.13
2022-10-18T22:36:58.946Z,21.50
2022-10-18T22:39:28.130Z,22.13
2022-10-18T22:42:00.718Z,23.60
2022-10-18T22:44:29.879Z,24.03
2022-10-18T22:46:58.827Z,22.80
2022-10-18T22:49:28.068Z,20.70
2022-10-18T22:51:56.948Z,21.17
2022-10-18T22:54:25.885Z,21.83
2022-10-18T22:56:54.821Z,19.53
2022-10-18T22:59:25.284Z,20.10
2022-10-18T23:01:54.264Z,19.97
2022-10-18T23:04:23.259Z,20.03
2022-10-18T23:06:52.622Z,19.33
2022-10-18T23:09:21.742Z,18.40
2022-10-18T23:11:53.313Z,17.50
2022-10-18T23:14:22.473Z,30.70
2022-10-18T23:16:52.774Z,19.57
2022-10-18T23:19:21.766Z,20.60
2022-10-18T23:21:50.632Z,20.97
2022-10-18T23:24:19.651Z,21.40
2022-10-18T23:26:48.709Z,19.70
2022-10-18T23:29:17.950Z,19.37
2022-10-18T23:31:47.022Z,19.03
2022-10-18T23:34:19.104Z,21.20
2022-10-18T23:36:48.234Z,21.13
2022-10-18T23:39:17.202Z,22.67
2022-10-18T23:41:46.535Z,20.00
2022-10-18T23:44:15.602Z,21.10
2022-10-18T23:46:44.504Z,22.27
2022-10-18T23:49:14.898Z,22.97
2022-10-18T23:51:45.323Z,21.97
2022-10-18T23:54:14.373Z,23.10
2022-10-18T23:56:44.906Z,20.93
2022-10-18T23:59:13.941Z,21.37
